createdAt,value
2022-10-23T00:00:17.179Z,13.29
2022-10-23T00:02:44.331Z,13.27
2022-10-23T00:05:11.517Z,13.32
2022-10-23T00:07:38.424Z,13.32
2022-10-23T00:10:05.470Z,13.34
2022-10-23T00:12:32.533Z,13.34
2022-10-23T00:14:59.250Z,13.33
2022-10-23T00:17:26.125Z,13.29
2022-10-23T00:19:52.704Z,13.28
2022-10-23T00:22:19.474Z,13.24
2022-10-23T00:24:46.045Z,13.31
2022-10-23T00:27:12.647Z,13.29
2022-10-23T00:29:39.460Z,13.22
2022-10-23T00:32:06.087Z,13.24
2022-10-23T00:34:32.740Z,13.16
2022-10-23T00:36:59.364Z,13.16
2022-10-23T00:39:26.071Z,13.02
2022-10-23T00:41:52.845Z,13.13
2022-10-23T00:44:22.243Z,13.14
2022-10-23T00:46:49.727Z,13.10
2022-10-23T00:49:17.098Z,13.10
2022-10-23T00:51:47.523Z,13.09
2022-10-23T00:54:25.364Z,13.04
2022-10-23T00:56:58.924Z,13.03
2022-10-23T00:59:26.742Z,12.99
2022-10-23T01:01:53.539Z,12.99
2022-10-23T01:04:21.263Z,13.00
2022-10-23T01:07:17.603Z,12.99
2022-10-23T01:09:53.057Z,12.94
2022-10-23T01:12:34.532Z,12.95
2022-10-23T01:15:16.415Z,12.94
2022-10-23T01:17:52.039Z,12.97
2022-10-23T01:20:37.003Z,12.99
2022-10-23T01:23:12.699Z,13.00
2022-10-23T01:25:57.615Z,12.99
2022-10-23T01:28:44.123Z,12.98
2022-10-23T01:31:16.452Z,12.96
2022-10-23T01:33:51.468Z,12.99
2022-10-23T01:36:21.357Z,13.00
2022-10-23T01:38:57.533Z,13.00
2022-10-23T01:41:27.911Z,12.97
2022-10-23T01:44:01.718Z,12.99
2022-10-23T01:46:30.286Z,12.94
2022-10-23T01:49:00.522Z,12.99
2022-10-23T01:51:31.157Z,12.98
2022-10-23T01:54:00.617Z,12.98
2022-10-23T01:56:32.149Z,12.99
2022-10-23T01:59:03.500Z,12.99
2022-10-23T02:01:32.635Z,12.96
2022-10-23T02:04:01.211Z,12.98
2022-10-23T02:06:28.784Z,12.99
2022-10-23T02:08:56.152Z,13.01
2022-10-23T02:11:23.146Z,12.98
2022-10-23T02:14:02.202Z,13.10
2022-10-23T02:16:37.803Z,13.11
2022-10-23T02:19:29.164Z,13.09
2022-10-23T02:22:04.993Z,13.12
2022-10-23T02:24:36.646Z,13.13
2022-10-23T02:27:09.904Z,13.03
2022-10-23T02:29:47.443Z,13.12
2022-10-23T02:32:15.334Z,13.13
2022-10-23T02:34:42.156Z,13.15
2022-10-23T02:37:08.821Z,13.13
2022-10-23T02:39:35.831Z,13.11
2022-10-23T02:42:23.473Z,13.10
2022-10-23T02:44:50.215Z,13.13
2022-10-23T02:47:32.127Z,13.12
2022-10-23T02:50:14.238Z,13.07
2022-10-23T02:52:53.561Z,13.04
2022-10-23T02:55:35.680Z,13.07
2022-10-23T02:58:14.358Z,13.02
2022-10-23T03:00:45.515Z,13.02
2022-10-23T03:03:17.373Z,13.02
2022-10-23T03:05:47.275Z,13.00
2022-10-23T03:08:14.852Z,13.02
2022-10-23T03:10:42.890Z,13.01
2022-10-23T03:13:12.748Z,12.99
2022-10-23T03:15:39.491Z,13.02
2022-10-23T03:18:06.221Z,12.97
2022-10-23T03:20:33.067Z,12.91
2022-10-23T03:22:59.749Z,12.94
2022-10-23T03:25:26.397Z,12.92
2022-10-23T03:27:53.176Z,12.88
2022-10-23T03:30:20.077Z,12.91
2022-10-23T03:32:46.797Z,12.90
2022-10-23T03:35:13.505Z,12.91
2022-10-23T03:37:40.238Z,12.91
2022-10-23T03:40:07.655Z,12.90
2022-10-23T03:42:34.500Z,12.90
2022-10-23T03:45:01.074Z,12.87
2022-10-23T03:47:30.230Z,12.86
2022-10-23T03:49:56.989Z,12.86
2022-10-23T03:54:51.300Z,12.72
2022-10-23T03:57:18.412Z,12.75
2022-10-23T03:59:45.028Z,12.68
2022-10-23T04:02:11.730Z,12.65
2022-10-23T04:04:38.512Z,12.58
2022-10-23T04:07:05.263Z,12.49
2022-10-23T04:09:31.931Z,12.54
2022-10-23T04:11:58.611Z,12.55
2022-10-23T04:14:26.054Z,12.55
2022-10-23T04:16:52.733Z,12.50
2022-10-23T04:19:19.416Z,12.55
2022-10-23T04:21:46.054Z,12.52
2022-10-23T04:24:12.685Z,12.49
2022-10-23T04:26:39.604Z,12.51
2022-10-23T04:29:06.327Z,12.50
2022-10-23T04:31:33.158Z,12.52
2022-10-23T04:33:59.970Z,12.48
2022-10-23T04:36:26.645Z,12.48
2022-10-23T04:38:53.397Z,12.48
2022-10-23T04:41:20.034Z,12.45
2022-10-23T04:43:46.675Z,12.48
2022-10-23T04:46:13.308Z,12.47
2022-10-23T04:48:39.972Z,12.42
2022-10-23T04:51:06.839Z,12.45
2022-10-23T04:53:33.760Z,12.46
2022-10-23T04:56:00.898Z,12.46
2022-10-23T04:58:28.935Z,12.47
2022-10-23T05:00:56.403Z,12.47
2022-10-23T05:03:25.366Z,12.47
2022-10-23T05:05:56.521Z,12.47
2022-10-23T05:08:24.077Z,12.47
2022-10-23T05:10:51.285Z,12.44
2022-10-23T05:13:19.899Z,12.48
2022-10-23T05:15:58.544Z,12.46
2022-10-23T05:18:29.330Z,12.45
2022-10-23T05:21:06.963Z,12.47
2022-10-23T05:23:36.681Z,12.44
2022-10-23T05:26:04.545Z,12.44
2022-10-23T05:28:31.232Z,12.46
2022-10-23T05:31:00.792Z,12.41
2022-10-23T05:33:28.294Z,12.44
2022-10-23T05:35:55.261Z,12.44
2022-10-23T05:38:22.652Z,12.46
2022-10-23T05:40:51.734Z,12.47
2022-10-23T05:43:18.492Z,12.48
2022-10-23T05:45:45.130Z,12.49
2022-10-23T05:48:22.898Z,12.49
2022-10-23T05:51:11.834Z,12.50
2022-10-23T05:53:41.675Z,12.50
2022-10-23T05:56:09.782Z,12.52
2022-10-23T05:58:36.922Z,12.55
2022-10-23T06:01:08.999Z,12.53
2022-10-23T06:03:37.079Z,12.51
2022-10-23T06:06:04.268Z,12.54
2022-10-23T06:08:32.160Z,12.53
2022-10-23T06:10:59.047Z,12.54
2022-10-23T06:13:25.872Z,12.55
2022-10-23T06:15:52.515Z,12.62
2022-10-23T06:18:19.160Z,12.64
2022-10-23T06:20:45.786Z,12.67
2022-10-23T06:23:12.449Z,12.65
2022-10-23T06:25:39.018Z,12.69
2022-10-23T06:28:05.660Z,12.68
2022-10-23T06:30:32.390Z,12.65
2022-10-23T06:33:02.141Z,12.70
2022-10-23T06:35:31.284Z,12.69
2022-10-23T06:37:58.181Z,12.69
2022-10-23T06:40:24.751Z,12.73
2022-10-23T06:42:51.332Z,12.73
2022-10-23T06:45:18.026Z,12.70
2022-10-23T06:47:44.918Z,12.73
2022-10-23T06:50:15.266Z,12.74
2022-10-23T06:52:46.966Z,12.77
2022-10-23T06:55:14.938Z,12.72
2022-10-23T06:57:42.127Z,12.80
2022-10-23T07:00:10.273Z,12.81
2022-10-23T07:02:37.042Z,12.81
2022-10-23T07:05:04.252Z,12.81
2022-10-23T07:07:31.318Z,12.81
2022-10-23T07:09:58.174Z,12.77
2022-10-23T07:12:25.296Z,12.80
2022-10-23T07:14:51.986Z,12.79
2022-10-23T07:17:18.541Z,12.76
2022-10-23T07:19:46.704Z,12.76
2022-10-23T07:22:15.884Z,12.74
2022-10-23T07:24:42.914Z,12.73
2022-10-23T07:27:09.977Z,12.71
2022-10-23T07:29:37.128Z,12.71
2022-10-23T07:32:04.736Z,12.76
2022-10-23T07:34:32.219Z,12.76
2022-10-23T07:36:58.930Z,12.78
2022-10-23T07:39:25.776Z,12.80
2022-10-23T07:41:52.618Z,12.83
2022-10-23T07:44:21.054Z,12.86
2022-10-23T07:46:49.865Z,12.89
2022-10-23T07:49:16.763Z,12.95
2022-10-23T07:51:45.528Z,12.99
2022-10-23T07:54:15.459Z,13.03
2022-10-23T07:56:42.293Z,13.05
2022-10-23T07:59:12.988Z,13.03
2022-10-23T08:01:40.842Z,13.16
2022-10-23T08:04:08.966Z,13.17
2022-10-23T08:06:36.000Z,13.23
2022-10-23T08:09:06.282Z,13.20
2022-10-23T08:11:35.872Z,13.22
2022-10-23T08:14:06.416Z,13.23
2022-10-23T08:16:34.917Z,13.21
2022-10-23T08:19:02.316Z,13.22
2022-10-23T08:21:29.009Z,13.25
2022-10-23T08:23:57.936Z,13.28
2022-10-23T08:26:26.255Z,13.32
2022-10-23T08:28:53.675Z,13.33
2022-10-23T08:31:21.575Z,13.34
2022-10-23T08:36:24.552Z,13.32
2022-10-23T08:38:55.706Z,13.36
2022-10-23T08:41:25.536Z,13.38
2022-10-23T08:44:01.164Z,13.36
2022-10-23T08:46:33.356Z,13.38
2022-10-23T08:49:18.542Z,13.35
2022-10-23T08:51:48.924Z,13.37
2022-10-23T08:54:47.660Z,13.38
2022-10-23T08:57:17.610Z,13.39
2022-10-23T08:59:58.915Z,13.41
2022-10-23T09:02:34.004Z,13.44
2022-10-23T09:05:00.902Z,13.38
2022-10-23T09:08:06.329Z,13.45
2022-10-23T09:10:51.762Z,13.46
2022-10-23T09:13:41.619Z,13.52
2022-10-23T09:16:22.831Z,13.57
2022-10-23T09:18:50.502Z,13.62
2022-10-23T09:21:17.316Z,13.62
2022-10-23T09:23:44.114Z,13.64
2022-10-23T09:26:18.628Z,13.73
2022-10-23T09:28:50.631Z,13.80
2022-10-23T09:31:19.575Z,13.82
2022-10-23T09:33:57.752Z,13.87
2022-10-23T09:36:27.584Z,13.91
2022-10-23T09:38:56.499Z,13.93
2022-10-23T09:41:28.840Z,13.91
2022-10-23T09:44:01.267Z,13.96
2022-10-23T09:46:44.766Z,13.98
2022-10-23T09:49:26.958Z,13.95
2022-10-23T09:52:24.751Z,13.93
2022-10-23T09:54:58.420Z,14.01
2022-10-23T09:57:38.288Z,13.99
2022-10-23T10:00:07.337Z,14.01
2022-10-23T10:02:36.783Z,14.04
2022-10-23T10:05:29.776Z,14.11
2022-10-23T10:08:10.939Z,14.15
2022-10-23T10:10:45.078Z,14.17
2022-10-23T10:13:34.235Z,14.23
2022-10-23T10:16:11.788Z,14.26
2022-10-23T10:19:15.787Z,14.32
2022-10-23T10:22:17.459Z,14.37
2022-10-23T10:25:03.372Z,14.42
2022-10-23T10:27:42.323Z,14.46
2022-10-23T10:30:22.586Z,14.50
2022-10-23T10:33:03.154Z,14.53
2022-10-23T10:36:08.354Z,14.56
2022-10-23T10:38:34.940Z,14.58
2022-10-23T10:41:22.862Z,14.59
2022-10-23T10:44:14.436Z,14.59
2022-10-23T10:46:49.734Z,14.55
2022-10-23T10:49:27.075Z,14.60
2022-10-23T10:52:25.016Z,14.61
2022-10-23T10:55:05.489Z,14.65
2022-10-23T10:57:46.681Z,14.69
2022-10-23T11:00:22.112Z,14.65
2022-10-23T11:02:53.556Z,14.66
2022-10-23T11:05:25.584Z,14.69
2022-10-23T11:08:13.689Z,14.67
2022-10-23T11:10:45.865Z,14.71
2022-10-23T11:13:29.225Z,14.70
2022-10-23T11:16:01.405Z,14.68
2022-10-23T11:18:31.049Z,14.62
2022-10-23T11:21:14.738Z,14.52
2022-10-23T11:27:08.969Z,14.42
2022-10-23T11:29:41.699Z,14.39
2022-10-23T11:32:44.477Z,14.38
2022-10-23T11:35:45.244Z,14.36
2022-10-23T11:38:24.291Z,14.39
2022-10-23T11:40:53.999Z,14.42
2022-10-23T11:43:33.828Z,14.50
2022-10-23T11:46:31.954Z,14.48
2022-10-23T11:49:02.372Z,14.52
2022-10-23T11:51:29.310Z,14.54
2022-10-23T11:54:25.048Z,14.60
2022-10-23T11:57:11.763Z,14.60
2022-10-23T11:59:48.124Z,14.71
2022-10-23T12:02:34.414Z,14.77
2022-10-23T12:05:22.721Z,14.79
2022-10-23T12:07:55.959Z,14.83
2022-10-23T12:10:55.557Z,14.88
2022-10-23T12:13:45.486Z,14.84
2022-10-23T12:16:13.122Z,14.86
2022-10-23T12:18:53.827Z,14.82
2022-10-23T12:21:28.511Z,14.73
2022-10-23T12:24:31.713Z,14.84
2022-10-23T12:27:27.484Z,14.90
2022-10-23T12:30:33.259Z,14.96
2022-10-23T12:32:59.791Z,14.95
2022-10-23T12:36:00.799Z,14.95
2022-10-23T12:38:33.853Z,14.92
2022-10-23T12:41:08.828Z,14.91
2022-10-23T12:43:38.255Z,14.89
2022-10-23T12:46:28.294Z,14.88
2022-10-23T12:48:59.312Z,14.85
2022-10-23T12:51:32.116Z,14.83
2022-10-23T12:53:59.151Z,14.77
2022-10-23T12:56:29.443Z,14.76
2022-10-23T12:59:02.152Z,14.72
2022-10-23T13:01:31.552Z,14.73
2022-10-23T13:04:34.915Z,14.67
2022-10-23T13:07:03.092Z,14.67
2022-10-23T13:09:42.043Z,14.68
2022-10-23T13:12:18.574Z,14.69
2022-10-23T13:15:15.906Z,14.71
2022-10-23T13:18:02.570Z,14.71
2022-10-23T13:20:29.196Z,14.72
2022-10-23T13:23:21.798Z,14.72
2022-10-23T13:26:00.388Z,14.76
2022-10-23T13:28:31.416Z,14.80
2022-10-23T13:31:10.138Z,14.88
2022-10-23T13:33:48.300Z,14.91
2022-10-23T13:36:14.984Z,14.91
2022-10-23T13:38:47.121Z,14.92
2022-10-23T13:41:16.924Z,14.96
2022-10-23T13:43:45.315Z,14.97
2022-10-23T13:46:16.658Z,14.93
2022-10-23T13:48:43.441Z,14.87
2022-10-23T13:51:15.017Z,14.83
2022-10-23T13:53:42.025Z,14.84
2022-10-23T13:56:12.475Z,14.81
2022-10-23T13:58:39.511Z,14.80
2022-10-23T14:01:07.197Z,14.79
2022-10-23T14:03:34.352Z,14.82
2022-10-23T14:06:01.436Z,14.81
2022-10-23T14:08:28.394Z,14.83
2022-10-23T14:10:55.371Z,14.88
2022-10-23T14:13:21.991Z,14.89
2022-10-23T14:15:58.168Z,14.92
2022-10-23T14:18:24.765Z,14.88
2022-10-23T14:20:51.374Z,14.81
2022-10-23T14:23:18.308Z,14.84
2022-10-23T14:25:44.922Z,14.87
2022-10-23T14:28:11.568Z,14.81
2022-10-23T14:30:38.567Z,14.79
2022-10-23T14:33:05.132Z,14.75
2022-10-23T14:35:31.781Z,14.68
2022-10-23T14:37:58.854Z,14.62
2022-10-23T14:40:25.574Z,14.54
2022-10-23T14:42:52.287Z,14.47
2022-10-23T14:45:19.736Z,14.39
2022-10-23T14:47:46.649Z,14.35
2022-10-23T14:50:14.095Z,14.27
2022-10-23T14:52:41.251Z,14.21
2022-10-23T14:55:08.459Z,14.12
2022-10-23T14:57:35.108Z,14.09
2022-10-23T15:00:01.974Z,14.09
2022-10-23T15:02:28.573Z,14.10
2022-10-23T15:04:55.585Z,14.01
2022-10-23T15:07:22.394Z,14.03
2022-10-23T15:09:50.739Z,13.98
2022-10-23T15:12:17.726Z,13.85
2022-10-23T15:14:44.727Z,13.75
2022-10-23T15:17:15.416Z,13.62
2022-10-23T15:19:42.555Z,13.50
2022-10-23T15:22:09.348Z,13.34
2022-10-23T15:24:36.186Z,13.28
2022-10-23T15:27:02.880Z,13.19
2022-10-23T15:29:29.819Z,13.07
2022-10-23T15:32:01.508Z,12.96
2022-10-23T15:34:29.254Z,12.89
2022-10-23T15:36:57.270Z,12.79
2022-10-23T15:39:26.545Z,12.71
2022-10-23T15:41:56.091Z,12.55
2022-10-23T15:44:25.336Z,12.47
2022-10-23T15:46:52.020Z,12.37
2022-10-23T15:49:20.239Z,12.31
2022-10-23T15:51:47.247Z,12.22
2022-10-23T15:54:19.320Z,12.14
2022-10-23T15:56:48.360Z,12.04
2022-10-23T15:59:16.018Z,11.96
2022-10-23T16:01:42.680Z,11.88
2022-10-23T16:04:09.786Z,11.82
2022-10-23T16:06:36.556Z,11.79
2022-10-23T16:09:03.899Z,11.73
2022-10-23T16:11:35.013Z,11.72
2022-10-23T16:14:03.665Z,11.61
2022-10-23T16:16:31.675Z,11.50
2022-10-23T16:19:00.719Z,11.44
2022-10-23T16:21:32.079Z,11.37
2022-10-23T16:24:00.976Z,11.27
2022-10-23T16:26:29.717Z,11.20
2022-10-23T16:28:59.079Z,11.13
2022-10-23T16:31:26.473Z,11.00
2022-10-23T16:33:53.900Z,10.95
2022-10-23T16:36:22.275Z,10.90
2022-10-23T16:38:48.907Z,10.84
2022-10-23T16:41:15.801Z,10.83
2022-10-23T16:43:42.562Z,10.75
2022-10-23T16:46:12.518Z,10.73
2022-10-23T16:48:40.261Z,10.62
2022-10-23T16:51:08.829Z,10.56
2022-10-23T16:53:35.715Z,10.52
2022-10-23T16:56:07.985Z,10.51
2022-10-23T16:58:35.454Z,10.41
2022-10-23T17:01:06.030Z,10.41
2022-10-23T17:03:44.645Z,10.37
2022-10-23T17:06:13.840Z,10.31
2022-10-23T17:08:41.368Z,10.25
2022-10-23T17:11:11.917Z,10.21
2022-10-23T17:13:41.864Z,10.15
2022-10-23T17:16:10.402Z,10.13
2022-10-23T17:18:41.289Z,10.11
2022-10-23T17:21:11.360Z,10.09
2022-10-23T17:23:38.007Z,9.99
2022-10-23T17:26:11.810Z,9.85
2022-10-23T17:28:41.669Z,9.88
2022-10-23T17:31:19.902Z,9.85
2022-10-23T17:33:48.112Z,9.79
2022-10-23T17:36:16.274Z,9.74
2022-10-23T17:38:43.985Z,9.70
2022-10-23T17:41:13.100Z,9.73
2022-10-23T17:43:40.980Z,9.64
2022-10-23T17:46:10.939Z,9.71
2022-10-23T17:48:40.172Z,9.68
2022-10-23T17:51:11.240Z,9.69
2022-10-23T17:53:40.989Z,9.61
2022-10-23T17:56:11.122Z,9.48
2022-10-23T17:58:37.816Z,9.43
2022-10-23T18:01:08.864Z,9.40
2022-10-23T18:03:37.860Z,9.45
2022-10-23T18:06:18.103Z,9.42
2022-10-23T18:08:45.459Z,9.41
2022-10-23T18:11:17.089Z,9.33
2022-10-23T18:13:44.104Z,9.22
2022-10-23T18:16:11.940Z,9.13
2022-10-23T18:18:40.935Z,9.13
2022-10-23T18:21:09.635Z,9.10
2022-10-23T18:23:37.104Z,9.01
2022-10-23T18:26:05.183Z,8.94
2022-10-23T18:28:32.691Z,8.92
2022-10-23T18:30:59.284Z,8.83
2022-10-23T18:33:26.645Z,8.91
2022-10-23T18:35:53.494Z,8.91
2022-10-23T18:38:21.075Z,8.83
2022-10-23T18:40:53.944Z,8.87
2022-10-23T18:43:41.971Z,8.85
2022-10-23T18:46:08.512Z,8.75
2022-10-23T18:48:35.811Z,8.71
2022-10-23T18:51:02.524Z,8.61
2022-10-23T18:53:29.285Z,8.61
2022-10-23T18:55:56.307Z,8.55
2022-10-23T18:58:22.890Z,8.51
2022-10-23T19:00:50.067Z,8.48
2022-10-23T19:03:16.892Z,8.46
2022-10-23T19:05:45.089Z,8.38
2022-10-23T19:08:12.601Z,8.45
2022-10-23T19:10:42.482Z,8.44
2022-10-23T19:13:09.113Z,8.35
2022-10-23T19:15:37.497Z,8.34
2022-10-23T19:18:07.138Z,8.27
2022-10-23T19:20:34.055Z,8.22
2022-10-23T19:23:02.413Z,8.18
2022-10-23T19:25:32.962Z,8.12
2022-10-23T19:28:01.997Z,8.05
2022-10-23T19:30:29.373Z,8.09
2022-10-23T19:32:56.189Z,8.12
2022-10-23T19:35:23.340Z,8.10
2022-10-23T19:37:50.653Z,8.08
2022-10-23T19:40:17.882Z,8.16
2022-10-23T19:42:44.573Z,8.08
2022-10-23T19:45:14.321Z,8.14
2022-10-23T19:47:41.483Z,8.08
2022-10-23T19:50:09.250Z,8.09
2022-10-23T19:52:36.191Z,8.07
2022-10-23T19:55:04.336Z,8.07
2022-10-23T19:57:33.902Z,7.92
2022-10-23T20:00:01.719Z,7.94
2022-10-23T20:02:28.852Z,7.94
2022-10-23T20:04:55.757Z,7.75
2022-10-23T20:07:22.954Z,7.81
2022-10-23T20:09:49.699Z,7.77
2022-10-23T20:12:16.927Z,7.77
2022-10-23T20:14:43.746Z,7.79
2022-10-23T20:17:10.651Z,7.70
2022-10-23T20:19:37.459Z,7.66
2022-10-23T20:22:04.168Z,7.59
2022-10-23T20:24:30.991Z,7.54
2022-10-23T20:26:57.665Z,7.47
2022-10-23T20:29:25.052Z,7.51
2022-10-23T20:31:52.382Z,7.49
2022-10-23T20:34:19.658Z,7.45
2022-10-23T20:36:51.322Z,7.40
2022-10-23T20:39:24.744Z,7.41
2022-10-23T20:41:51.886Z,7.35
2022-10-23T20:44:19.368Z,7.32
2022-10-23T20:46:46.374Z,7.32
2022-10-23T20:49:14.141Z,7.24
2022-10-23T20:51:41.174Z,7.23
2022-10-23T20:54:08.147Z,7.22
2022-10-23T20:56:37.083Z,7.21
2022-10-23T20:59:11.184Z,7.17
2022-10-23T21:01:40.678Z,7.16
2022-10-23T21:04:07.328Z,7.15
2022-10-23T21:06:46.193Z,7.11
2022-10-23T21:09:21.813Z,7.10
2022-10-23T21:11:48.531Z,7.09
2022-10-23T21:14:15.111Z,7.08
2022-10-23T21:16:44.600Z,7.10
2022-10-23T21:19:16.082Z,7.08
2022-10-23T21:21:43.633Z,7.05
2022-10-23T21:24:14.884Z,7.01
2022-10-23T21:26:41.765Z,6.91
2022-10-23T21:29:23.999Z,6.92
2022-10-23T21:31:56.465Z,6.95
2022-10-23T21:34:25.510Z,6.87
2022-10-23T21:37:12.945Z,6.92
2022-10-23T21:39:39.222Z,6.92
2022-10-23T21:42:05.936Z,6.92
2022-10-23T21:44:32.871Z,6.83
2022-10-23T21:46:59.709Z,6.83
2022-10-23T21:49:26.289Z,6.79
2022-10-23T21:51:55.063Z,6.75
2022-10-23T21:54:22.012Z,6.78
2022-10-23T21:56:51.056Z,6.73
2022-10-23T21:59:20.439Z,6.73
2022-10-23T22:01:48.755Z,6.78
2022-10-23T22:04:19.261Z,6.72
2022-10-23T22:06:47.703Z,6.78
2022-10-23T22:09:19.548Z,6.72
2022-10-23T22:11:46.888Z,6.68
2022-10-23T22:14:13.512Z,6.67
2022-10-23T22:16:42.122Z,6.64
2022-10-23T22:19:11.396Z,6.66
2022-10-23T22:21:38.066Z,6.64
2022-10-23T22:24:04.927Z,6.59
2022-10-23T22:26:38.290Z,6.63
2022-10-23T22:29:11.124Z,6.65
2022-10-23T22:31:39.378Z,6.66
2022-10-23T22:34:18.965Z,6.64
2022-10-23T22:36:54.680Z,6.68
2022-10-23T22:39:21.588Z,6.72
2022-10-23T22:41:48.256Z,6.68
2022-10-23T22:44:15.561Z,6.73
2022-10-23T22:46:42.604Z,6.75
2022-10-23T22:49:09.509Z,6.76
2022-10-23T22:51:37.918Z,6.75
2022-10-23T22:54:04.914Z,6.74
2022-10-23T22:56:31.582Z,6.71
2022-10-23T22:58:58.577Z,6.75
2022-10-23T23:01:34.962Z,6.77
2022-10-23T23:04:13.772Z,6.76
2022-10-23T23:06:46.643Z,6.74
2022-10-23T23:09:17.901Z,6.72
2022-10-23T23:11:51.714Z,6.64
2022-10-23T23:14:23.026Z,6.67
2022-10-23T23:16:52.270Z,6.64
2022-10-23T23:19:18.992Z,6.60
2022-10-23T23:21:45.916Z,6.59
2022-10-23T23:24:12.638Z,6.56
2022-10-23T23:26:39.276Z,6.60
2022-10-23T23:29:06.432Z,6.56
2022-10-23T23:31:33.065Z,6.56
2022-10-23T23:33:59.756Z,6.50
2022-10-23T23:36:27.477Z,6.47
2022-10-23T23:38:55.441Z,6.49
2022-10-23T23:41:23.264Z,6.47
2022-10-23T23:43:50.926Z,6.43
2022-10-23T23:46:18.155Z,6.41
2022-10-23T23:48:48.049Z,6.34
2022-10-23T23:51:16.718Z,6.31
2022-10-23T23:53:43.471Z,6.34
2022-10-23T23:56:10.426Z,6.36
2022-10-23T23:58:37.355Z,6.33
